createdAt,value
2023-06-17T00:00:49.901Z,22.76
2023-06-17T00:03:16.775Z,22.61
2023-06-17T00:05:43.603Z,22.49
2023-06-17T00:08:10.405Z,22.38
2023-06-17T00:10:37.324Z,22.31
2023-06-17T00:15:52.269Z,22.09
2023-06-17T00:18:21.216Z,21.95
2023-06-17T00:20:49.401Z,21.80
2023-06-17T00:23:16.435Z,21.69
2023-06-17T00:25:43.708Z,21.61
2023-06-17T00:28:10.746Z,21.55
2023-06-17T00:30:37.825Z,21.50
2023-06-17T00:33:05.034Z,21.45
2023-06-17T00:35:31.985Z,21.41
2023-06-17T00:37:58.692Z,21.33
2023-06-17T00:40:25.603Z,21.23
2023-06-17T00:42:52.384Z,21.15
2023-06-17T00:45:19.393Z,21.01
2023-06-17T00:47:46.391Z,20.90
2023-06-17T00:50:16.324Z,20.88
2023-06-17T00:52:46.510Z,20.87
2023-06-17T00:55:13.631Z,20.86
2023-06-17T00:57:40.972Z,20.86
2023-06-17T01:00:17.358Z,20.85
2023-06-17T01:02:46.268Z,20.82
2023-06-17T01:05:18.198Z,20.76
2023-06-17T01:07:57.354Z,20.72
2023-06-17T01:10:48.986Z,20.67
2023-06-17T01:13:17.952Z,20.61
2023-06-17T01:15:46.891Z,20.58
2023-06-17T01:18:18.992Z,20.53
2023-06-17T01:20:49.701Z,20.44
2023-06-17T01:23:18.080Z,20.38
2023-06-17T01:25:45.710Z,20.38
2023-06-17T01:28:17.991Z,20.40
2023-06-17T01:30:46.409Z,20.39
2023-06-17T01:33:16.246Z,20.39
2023-06-17T01:35:58.426Z,20.38
2023-06-17T01:38:47.605Z,20.38
2023-06-17T01:41:21.703Z,20.36
2023-06-17T01:43:50.592Z,20.36
2023-06-17T01:46:18.606Z,20.35
2023-06-17T01:48:45.830Z,20.32
2023-06-17T01:51:12.667Z,20.26
2023-06-17T01:53:39.437Z,20.18
2023-06-17T01:56:06.329Z,20.06
2023-06-17T01:58:33.140Z,20.04
2023-06-17T02:00:59.948Z,20.04
2023-06-17T02:03:27.601Z,20.05
2023-06-17T02:05:54.589Z,20.08
2023-06-17T02:08:23.640Z,20.07
2023-06-17T02:10:50.442Z,20.05
2023-06-17T02:13:17.310Z,20.04
2023-06-17T02:15:44.630Z,20.03
2023-06-17T02:18:15.503Z,19.94
2023-06-17T02:20:45.169Z,19.85
2023-06-17T02:23:12.235Z,19.78
2023-06-17T02:25:40.872Z,19.74
2023-06-17T02:28:09.010Z,19.69
2023-06-17T02:30:35.880Z,19.68
2023-06-17T02:33:02.709Z,19.65
2023-06-17T02:35:29.509Z,19.61
2023-06-17T02:37:56.916Z,19.60
2023-06-17T02:40:24.088Z,19.59
2023-06-17T02:42:51.523Z,19.56
2023-06-17T02:45:19.079Z,19.53
2023-06-17T02:47:47.004Z,19.53
2023-06-17T02:50:13.874Z,19.48
2023-06-17T02:52:40.847Z,19.42
2023-06-17T02:55:08.297Z,19.36
2023-06-17T02:57:36.870Z,19.28
2023-06-17T03:00:07.942Z,19.26
2023-06-17T03:02:34.742Z,19.25
2023-06-17T03:05:01.907Z,19.23
2023-06-17T03:07:30.444Z,19.22
2023-06-17T03:09:57.183Z,19.19
2023-06-17T03:12:23.939Z,19.16
2023-06-17T03:14:50.839Z,19.12
2023-06-17T03:17:18.894Z,19.13
2023-06-17T03:19:45.961Z,19.11
2023-06-17T03:22:12.813Z,19.07
2023-06-17T03:24:42.807Z,19.04
2023-06-17T03:27:10.002Z,19.03
2023-06-17T03:29:36.922Z,19.05
2023-06-17T03:32:04.376Z,19.11
2023-06-17T03:34:32.530Z,19.16
2023-06-17T03:36:59.743Z,19.21
2023-06-17T03:39:26.697Z,19.21
2023-06-17T03:41:53.892Z,19.21
2023-06-17T03:44:21.689Z,19.23
2023-06-17T03:46:48.531Z,19.24
2023-06-17T03:49:15.335Z,19.26
2023-06-17T03:51:42.633Z,19.27
2023-06-17T03:54:09.677Z,19.33
2023-06-17T03:56:36.770Z,19.38
2023-06-17T03:59:03.755Z,19.39
2023-06-17T04:01:31.905Z,19.40
2023-06-17T04:03:58.841Z,19.41
2023-06-17T04:06:25.684Z,19.45
2023-06-17T04:08:54.560Z,19.48
2023-06-17T04:11:21.372Z,19.54
2023-06-17T04:13:49.415Z,19.59
2023-06-17T04:16:16.477Z,19.65
2023-06-17T04:18:43.212Z,19.69
2023-06-17T04:21:10.788Z,19.71
2023-06-17T04:23:37.568Z,19.73
2023-06-17T04:26:04.385Z,19.73
2023-06-17T04:28:33.418Z,19.74
2023-06-17T04:31:02.490Z,19.69
2023-06-17T04:33:32.807Z,19.63
2023-06-17T04:36:09.178Z,19.64
2023-06-17T04:38:40.001Z,19.70
2023-06-17T04:41:07.438Z,19.77
2023-06-17T04:43:38.022Z,19.83
2023-06-17T04:46:07.304Z,19.93
2023-06-17T04:48:34.584Z,20.01
2023-06-17T04:51:01.355Z,20.10
2023-06-17T04:53:28.145Z,20.15
2023-06-17T04:55:55.582Z,20.22
2023-06-17T04:58:22.690Z,20.25
2023-06-17T05:01:00.432Z,20.19
2023-06-17T05:03:30.853Z,20.12
2023-06-17T05:05:57.655Z,20.11
2023-06-17T05:08:28.902Z,20.13
2023-06-17T05:10:57.751Z,20.17
2023-06-17T05:13:24.769Z,20.23
2023-06-17T05:15:54.043Z,20.39
2023-06-17T05:18:21.467Z,20.63
2023-06-17T05:20:48.725Z,20.93
2023-06-17T05:23:16.501Z,21.24
2023-06-17T05:25:44.076Z,21.55
2023-06-17T05:28:12.038Z,21.89
2023-06-17T05:30:41.284Z,22.21
2023-06-17T05:33:09.129Z,22.50
2023-06-17T05:35:36.075Z,22.75
2023-06-17T05:38:02.957Z,23.00
2023-06-17T05:40:30.008Z,23.19
2023-06-17T05:42:57.048Z,23.40
2023-06-17T05:45:24.146Z,23.59
2023-06-17T05:47:51.555Z,23.81
2023-06-17T05:50:19.264Z,23.96
2023-06-17T05:52:46.912Z,24.15
2023-06-17T05:55:13.725Z,24.35
2023-06-17T05:57:40.999Z,24.52
2023-06-17T06:00:09.660Z,24.67
2023-06-17T06:02:43.617Z,24.85
2023-06-17T06:05:11.090Z,25.02
2023-06-17T06:07:39.228Z,25.21
2023-06-17T06:10:08.110Z,25.38
2023-06-17T06:12:36.789Z,25.54
2023-06-17T06:15:04.954Z,25.65
2023-06-17T06:17:31.840Z,25.76
2023-06-17T06:19:58.755Z,25.86
2023-06-17T06:22:25.961Z,25.99
2023-06-17T06:24:52.745Z,26.11
2023-06-17T06:27:21.287Z,26.24
2023-06-17T06:29:48.185Z,26.37
2023-06-17T06:32:16.557Z,26.50
2023-06-17T06:34:43.804Z,26.65
2023-06-17T06:37:10.674Z,26.81
2023-06-17T06:39:37.863Z,26.95
2023-06-17T06:42:05.994Z,27.07
2023-06-17T06:44:43.818Z,27.20
2023-06-17T06:47:10.605Z,27.30
2023-06-17T06:49:37.460Z,27.37
2023-06-17T06:52:05.327Z,27.44
2023-06-17T06:54:32.376Z,27.53
2023-06-17T06:56:59.135Z,27.64
2023-06-17T06:59:26.732Z,27.74
2023-06-17T07:01:53.802Z,27.84
2023-06-17T07:04:24.254Z,27.91
2023-06-17T07:06:54.268Z,27.99
2023-06-17T07:09:24.511Z,28.10
2023-06-17T07:11:52.000Z,28.22
2023-06-17T07:14:18.979Z,28.33
2023-06-17T07:16:45.809Z,28.44
2023-06-17T07:19:12.884Z,28.56
2023-06-17T07:21:39.664Z,28.67
2023-06-17T07:24:06.712Z,28.79
2023-06-17T07:26:33.710Z,28.86
2023-06-17T07:29:03.830Z,28.96
2023-06-17T07:31:31.906Z,29.13
2023-06-17T07:34:00.000Z,29.32
2023-06-17T07:36:27.428Z,29.52
2023-06-17T07:38:54.297Z,29.69
2023-06-17T07:41:21.867Z,29.80
2023-06-17T07:43:48.610Z,29.81
2023-06-17T07:46:16.832Z,29.87
2023-06-17T07:48:43.601Z,29.95
2023-06-17T07:51:11.064Z,30.02
2023-06-17T07:53:37.750Z,30.09
2023-06-17T07:56:04.658Z,30.15
2023-06-17T07:58:31.646Z,30.21
2023-06-17T08:00:58.802Z,30.31
2023-06-17T08:03:25.724Z,30.39
2023-06-17T08:05:52.733Z,30.43
2023-06-17T08:08:19.700Z,30.51
2023-06-17T08:10:46.806Z,30.65
2023-06-17T08:13:13.583Z,30.83
2023-06-17T08:15:40.322Z,30.99
2023-06-17T08:18:07.126Z,31.13
2023-06-17T08:20:34.044Z,31.21
2023-06-17T08:23:00.971Z,31.35
2023-06-17T08:25:27.888Z,31.53
2023-06-17T08:27:54.736Z,31.70
2023-06-17T08:30:21.788Z,31.82
2023-06-17T08:32:48.969Z,31.96
2023-06-17T08:35:16.132Z,32.08
2023-06-17T08:37:42.952Z,32.19
2023-06-17T08:40:10.132Z,32.34
2023-06-17T08:42:36.901Z,32.48
2023-06-17T08:45:05.549Z,32.68
2023-06-17T08:47:33.568Z,32.82
2023-06-17T08:50:01.107Z,32.90
2023-06-17T08:52:30.014Z,32.95
2023-06-17T08:54:57.492Z,33.04
2023-06-17T08:57:24.844Z,33.18
2023-06-17T08:59:51.677Z,33.27
2023-06-17T09:02:18.824Z,33.37
2023-06-17T09:04:45.971Z,33.44
2023-06-17T09:07:13.925Z,33.53
2023-06-17T09:09:40.769Z,33.60
2023-06-17T09:12:09.650Z,33.69
2023-06-17T09:14:37.709Z,33.72
2023-06-17T09:17:04.898Z,33.77
2023-06-17T09:19:33.028Z,33.80
2023-06-17T09:22:08.847Z,33.87
2023-06-17T09:24:36.168Z,33.92
2023-06-17T09:27:03.363Z,33.95
2023-06-17T09:29:31.329Z,34.00
2023-06-17T09:31:59.217Z,34.04
2023-06-17T09:34:28.855Z,34.10
2023-06-17T09:37:02.915Z,34.20
2023-06-17T09:39:34.550Z,34.31
2023-06-17T09:42:08.385Z,34.40
2023-06-17T09:44:36.316Z,34.45
2023-06-17T09:47:07.630Z,34.53
2023-06-17T09:49:37.132Z,34.65
2023-06-17T09:52:06.855Z,34.77
2023-06-17T09:54:34.692Z,34.81
2023-06-17T09:57:04.214Z,34.80
2023-06-17T09:59:31.453Z,34.79
2023-06-17T10:01:58.221Z,34.80
2023-06-17T10:04:25.029Z,34.82
2023-06-17T10:06:54.307Z,34.89
2023-06-17T10:09:21.482Z,34.92
2023-06-17T10:11:54.696Z,34.90
2023-06-17T10:14:29.877Z,34.94
2023-06-17T10:16:57.660Z,35.01
2023-06-17T10:19:33.603Z,35.07
2023-06-17T10:22:02.883Z,35.14
2023-06-17T10:24:29.856Z,35.15
2023-06-17T10:29:35.918Z,35.29
2023-06-17T10:32:24.957Z,35.40
2023-06-17T10:35:06.984Z,35.50
2023-06-17T10:37:45.377Z,35.48
2023-06-17T10:40:33.963Z,35.36
2023-06-17T10:43:03.588Z,35.16
2023-06-17T10:45:47.842Z,35.13
2023-06-17T10:48:20.429Z,35.09
2023-06-17T10:50:53.503Z,35.02
2023-06-17T10:53:26.586Z,34.93
2023-06-17T10:55:53.489Z,34.80
2023-06-17T10:58:20.635Z,34.71
2023-06-17T11:00:47.430Z,34.75
2023-06-17T11:03:18.151Z,34.80
2023-06-17T11:05:45.172Z,34.79
2023-06-17T11:08:16.035Z,34.78
2023-06-17T11:10:43.247Z,34.88
2023-06-17T11:13:10.117Z,35.04
2023-06-17T11:15:37.064Z,35.18
2023-06-17T11:18:04.229Z,35.26
2023-06-17T11:20:34.390Z,35.38
2023-06-17T11:23:01.125Z,35.48
2023-06-17T11:25:43.570Z,35.54
2023-06-17T11:28:12.874Z,35.53
2023-06-17T11:30:41.813Z,35.42
2023-06-17T11:33:09.560Z,35.34
2023-06-17T11:35:38.159Z,35.38
2023-06-17T11:38:06.238Z,35.40
2023-06-17T11:40:32.982Z,35.38
2023-06-17T11:43:00.773Z,35.22
2023-06-17T11:45:29.297Z,35.11
2023-06-17T11:47:56.297Z,35.02
2023-06-17T11:50:29.150Z,35.02
2023-06-17T11:52:57.926Z,35.05
2023-06-17T11:55:35.610Z,35.02
2023-06-17T11:58:03.746Z,34.91
2023-06-17T12:00:31.961Z,34.89
2023-06-17T12:02:59.099Z,34.93
2023-06-17T12:05:30.102Z,35.04
2023-06-17T12:08:01.741Z,35.17
2023-06-17T12:10:28.636Z,35.29
2023-06-17T12:13:00.140Z,35.38
2023-06-17T12:15:36.884Z,35.53
2023-06-17T12:18:12.029Z,35.61
2023-06-17T12:20:39.747Z,35.61
2023-06-17T12:23:06.668Z,35.62
2023-06-17T12:25:35.424Z,35.65
2023-06-17T12:28:04.182Z,35.64
2023-06-17T12:30:31.308Z,35.44
2023-06-17T12:32:58.830Z,35.31
2023-06-17T12:35:26.008Z,35.24
2023-06-17T12:37:55.837Z,35.17
2023-06-17T12:40:22.772Z,35.25
2023-06-17T12:42:49.687Z,35.34
2023-06-17T12:45:17.234Z,35.44
2023-06-17T12:47:44.182Z,35.53
2023-06-17T12:50:11.611Z,35.64
2023-06-17T12:52:38.556Z,35.70
2023-06-17T12:55:17.987Z,35.68
2023-06-17T12:57:44.948Z,35.59
2023-06-17T13:00:13.247Z,35.50
2023-06-17T13:02:40.193Z,35.41
2023-06-17T13:05:08.654Z,35.34
2023-06-17T13:07:35.521Z,35.21
2023-06-17T13:10:03.466Z,35.18
2023-06-17T13:12:30.342Z,35.25
2023-06-17T13:14:57.221Z,35.24
2023-06-17T13:17:24.140Z,35.19
2023-06-17T13:19:51.104Z,35.25
2023-06-17T13:22:18.080Z,35.26
2023-06-17T13:24:45.185Z,35.26
2023-06-17T13:27:19.541Z,35.18
2023-06-17T13:29:47.555Z,35.06
2023-06-17T13:32:16.456Z,34.95
2023-06-17T13:34:45.127Z,34.91
2023-06-17T13:37:11.853Z,34.96
2023-06-17T13:39:38.977Z,34.99
2023-06-17T13:42:06.207Z,35.02
2023-06-17T13:44:32.909Z,35.09
2023-06-17T13:47:00.340Z,35.15
2023-06-17T13:49:27.829Z,34.98
2023-06-17T13:51:54.840Z,34.89
2023-06-17T13:54:21.880Z,34.97
2023-06-17T13:56:49.748Z,35.08
2023-06-17T13:59:17.372Z,35.14
2023-06-17T14:01:44.626Z,35.19
2023-06-17T14:04:12.139Z,35.25
2023-06-17T14:06:39.851Z,35.24
2023-06-17T14:09:08.046Z,35.22
2023-06-17T14:11:39.473Z,35.30
2023-06-17T14:14:07.276Z,35.42
2023-06-17T14:16:34.765Z,35.53
2023-06-17T14:19:01.814Z,35.58
2023-06-17T14:21:33.926Z,35.61
2023-06-17T14:24:08.155Z,35.56
2023-06-17T14:26:38.761Z,35.62
2023-06-17T14:29:08.565Z,35.66
2023-06-17T14:31:36.231Z,35.67
2023-06-17T14:34:02.987Z,35.71
2023-06-17T14:36:32.053Z,35.73
2023-06-17T14:39:00.928Z,35.71
2023-06-17T14:41:27.764Z,35.67
2023-06-17T14:43:54.653Z,35.61
2023-06-17T14:46:21.593Z,35.57
2023-06-17T14:48:48.460Z,35.56
2023-06-17T14:51:15.444Z,35.54
2023-06-17T14:53:43.126Z,35.52
2023-06-17T14:56:33.592Z,35.50
2023-06-17T14:59:03.970Z,35.45
2023-06-17T15:01:31.905Z,35.45
2023-06-17T15:03:59.012Z,35.45
2023-06-17T15:06:26.071Z,35.45
2023-06-17T15:09:26.199Z,35.44
2023-06-17T15:12:01.681Z,35.38
2023-06-17T15:14:33.479Z,35.36
2023-06-17T15:17:00.616Z,35.36
2023-06-17T15:19:27.717Z,35.28
2023-06-17T15:21:54.967Z,35.23
2023-06-17T15:24:21.770Z,35.19
2023-06-17T15:26:48.964Z,35.10
2023-06-17T15:29:17.047Z,34.98
2023-06-17T15:31:45.090Z,34.87
2023-06-17T15:34:12.259Z,34.78
2023-06-17T15:36:39.111Z,34.68
2023-06-17T15:39:36.094Z,34.57
2023-06-17T15:42:03.278Z,34.42
2023-06-17T15:44:30.027Z,34.28
2023-06-17T15:46:56.893Z,34.17
2023-06-17T15:49:23.697Z,34.07
2023-06-17T15:51:50.403Z,33.98
2023-06-17T15:54:19.401Z,33.85
2023-06-17T15:56:47.560Z,33.71
2023-06-17T15:59:14.763Z,33.59
2023-06-17T16:01:41.607Z,33.52
2023-06-17T16:04:33.337Z,33.47
2023-06-17T16:07:05.743Z,33.42
2023-06-17T16:09:35.969Z,33.33
2023-06-17T16:12:04.231Z,33.21
2023-06-17T16:14:36.961Z,33.10
2023-06-17T16:17:06.413Z,33.04
2023-06-17T16:19:34.215Z,33.00
2023-06-17T16:22:04.291Z,32.92
2023-06-17T16:24:31.608Z,32.83
2023-06-17T16:26:59.173Z,32.72
2023-06-17T16:29:26.589Z,32.65
2023-06-17T16:31:53.480Z,32.59
2023-06-17T16:34:20.474Z,32.56
2023-06-17T16:36:47.292Z,32.55
2023-06-17T16:39:14.145Z,32.54
2023-06-17T16:41:41.352Z,32.49
2023-06-17T16:44:09.223Z,32.42
2023-06-17T16:46:37.816Z,32.33
2023-06-17T16:49:04.674Z,32.25
2023-06-17T16:51:32.965Z,32.18
2023-06-17T16:54:03.036Z,32.10
2023-06-17T16:56:31.916Z,32.01
2023-06-17T16:58:58.720Z,31.94
2023-06-17T17:01:25.577Z,31.86
2023-06-17T17:03:52.503Z,31.82
2023-06-17T17:06:19.445Z,31.78
2023-06-17T17:08:50.562Z,31.74
2023-06-17T17:11:17.303Z,31.72
2023-06-17T17:13:49.276Z,31.68
2023-06-17T17:16:17.987Z,31.62
2023-06-17T17:18:45.143Z,31.57
2023-06-17T17:21:13.446Z,31.54
2023-06-17T17:23:41.634Z,31.51
2023-06-17T17:26:10.334Z,31.45
2023-06-17T17:28:37.393Z,31.41
2023-06-17T17:31:04.454Z,31.36
2023-06-17T17:33:31.617Z,31.29
2023-06-17T17:35:58.406Z,31.23
2023-06-17T17:38:25.149Z,31.17
2023-06-17T17:40:51.898Z,31.10
2023-06-17T17:43:18.675Z,31.02
2023-06-17T17:45:45.448Z,30.91
2023-06-17T17:48:12.366Z,30.80
2023-06-17T17:50:39.153Z,30.63
2023-06-17T17:53:06.122Z,30.49
2023-06-17T17:55:33.053Z,30.29
2023-06-17T17:58:01.085Z,30.11
2023-06-17T18:00:27.967Z,29.97
2023-06-17T18:02:54.800Z,29.80
2023-06-17T18:05:21.791Z,29.67
2023-06-17T18:07:49.922Z,29.56
2023-06-17T18:10:17.071Z,29.38
2023-06-17T18:12:43.950Z,29.20
2023-06-17T18:15:11.968Z,29.01
2023-06-17T18:17:39.306Z,28.88
2023-06-17T18:20:09.920Z,28.77
2023-06-17T18:22:38.413Z,28.65
2023-06-17T18:25:08.785Z,28.54
2023-06-17T18:27:37.183Z,28.45
2023-06-17T18:30:05.377Z,28.35
2023-06-17T18:32:32.481Z,28.26
2023-06-17T18:34:59.820Z,28.21
2023-06-17T18:37:27.210Z,28.18
2023-06-17T18:39:54.182Z,28.16
2023-06-17T18:42:21.147Z,28.13
2023-06-17T18:44:48.516Z,28.07
2023-06-17T18:47:15.377Z,28.00
2023-06-17T18:49:42.483Z,27.93
2023-06-17T18:52:09.306Z,27.90
2023-06-17T18:54:36.078Z,27.87
2023-06-17T18:57:03.030Z,27.83
2023-06-17T18:59:30.029Z,27.79
2023-06-17T19:01:56.801Z,27.66
2023-06-17T19:04:24.636Z,27.54
2023-06-17T19:06:51.396Z,27.40
2023-06-17T19:09:18.455Z,27.23
2023-06-17T19:11:46.854Z,27.05
2023-06-17T19:14:14.747Z,26.90
2023-06-17T19:16:43.261Z,26.75
2023-06-17T19:19:10.254Z,26.58
2023-06-17T19:21:37.432Z,26.44
2023-06-17T19:24:05.048Z,26.27
2023-06-17T19:26:31.952Z,26.11
2023-06-17T19:28:58.714Z,26.01
2023-06-17T19:31:26.106Z,25.91
2023-06-17T19:33:54.251Z,25.77
2023-06-17T19:36:21.309Z,25.64
2023-06-17T19:38:48.313Z,25.56
2023-06-17T19:41:16.765Z,25.49
2023-06-17T19:43:45.859Z,25.43
2023-06-17T19:46:12.871Z,25.33
2023-06-17T19:48:39.675Z,25.20
2023-06-17T19:51:07.071Z,25.07
2023-06-17T19:53:35.015Z,24.99
2023-06-17T19:56:02.314Z,24.94
2023-06-17T19:58:29.159Z,24.87
2023-06-17T20:00:56.162Z,24.79
2023-06-17T20:03:23.100Z,24.74
2023-06-17T20:05:50.904Z,24.68
2023-06-17T20:08:17.797Z,24.66
2023-06-17T20:10:44.604Z,24.64
2023-06-17T20:13:11.561Z,24.64
2023-06-17T20:15:38.612Z,24.63
2023-06-17T20:18:05.894Z,24.60
2023-06-17T20:20:33.538Z,24.57
2023-06-17T20:23:00.404Z,24.51
2023-06-17T20:25:27.357Z,24.48
2023-06-17T20:27:54.179Z,24.45
2023-06-17T20:30:22.200Z,24.42
2023-06-17T20:32:49.663Z,24.41
2023-06-17T20:35:16.568Z,24.39
2023-06-17T20:37:44.718Z,24.36
2023-06-17T20:40:11.992Z,24.36
2023-06-17T20:42:38.867Z,24.29
2023-06-17T20:45:09.970Z,24.26
2023-06-17T20:47:36.902Z,24.21
2023-06-17T20:50:04.486Z,24.15
2023-06-17T20:52:31.384Z,24.10
2023-06-17T20:54:58.294Z,24.02
2023-06-17T20:57:25.171Z,23.96
2023-06-17T20:59:53.892Z,23.93
2023-06-17T21:02:20.910Z,23.86
2023-06-17T21:04:47.924Z,23.82
2023-06-17T21:07:14.769Z,23.78
2023-06-17T21:09:42.510Z,23.77
2023-06-17T21:12:09.529Z,23.75
2023-06-17T21:14:36.350Z,23.71
2023-06-17T21:17:03.284Z,23.66
2023-06-17T21:19:30.041Z,23.63
2023-06-17T21:21:56.839Z,23.61
2023-06-17T21:24:23.820Z,23.63
2023-06-17T21:26:50.593Z,23.63
2023-06-17T21:29:17.468Z,23.63
2023-06-17T21:31:44.419Z,23.64
2023-06-17T21:34:11.178Z,23.62
2023-06-17T21:36:38.238Z,23.60
2023-06-17T21:39:05.183Z,23.55
2023-06-17T21:41:32.082Z,23.47
2023-06-17T21:43:58.881Z,23.41
2023-06-17T21:46:31.845Z,23.34
2023-06-17T21:48:58.841Z,23.26
2023-06-17T21:51:25.608Z,23.26
2023-06-17T21:53:52.542Z,23.24
2023-06-17T21:56:19.373Z,23.20
2023-06-17T21:58:46.468Z,23.16
2023-06-17T22:01:13.502Z,23.12
2023-06-17T22:03:41.596Z,23.08
2023-06-17T22:06:09.040Z,23.07
2023-06-17T22:08:42.770Z,23.04
2023-06-17T22:11:10.750Z,23.03
2023-06-17T22:13:37.475Z,23.03
2023-06-17T22:16:05.061Z,23.03
2023-06-17T22:18:32.504Z,23.05
2023-06-17T22:20:59.355Z,23.07
2023-06-17T22:23:26.242Z,23.09
2023-06-17T22:25:53.270Z,23.09
2023-06-17T22:28:20.210Z,23.07
2023-06-17T22:30:47.022Z,23.04
2023-06-17T22:33:13.838Z,23.00
2023-06-17T22:35:40.659Z,22.96
2023-06-17T22:38:07.459Z,22.90
2023-06-17T22:40:34.224Z,22.85
2023-06-17T22:43:01.144Z,22.82
2023-06-17T22:45:27.847Z,22.82
2023-06-17T22:47:57.917Z,22.80
2023-06-17T22:50:25.142Z,22.80
2023-06-17T22:52:52.419Z,22.83
2023-06-17T22:55:19.430Z,22.81
2023-06-17T22:57:46.277Z,22.79
2023-06-17T23:00:14.112Z,22.77
2023-06-17T23:02:41.541Z,22.74
2023-06-17T23:05:08.824Z,22.70
2023-06-17T23:07:35.695Z,22.67
2023-06-17T23:10:02.450Z,22.63
2023-06-17T23:12:29.308Z,22.60
2023-06-17T23:14:56.376Z,22.59
2023-06-17T23:17:24.204Z,22.58
2023-06-17T23:19:50.990Z,22.57
2023-06-17T23:22:18.161Z,22.55
2023-06-17T23:24:45.151Z,22.51
2023-06-17T23:27:11.919Z,22.48
2023-06-17T23:29:39.975Z,22.45
2023-06-17T23:32:08.565Z,22.42
2023-06-17T23:34:35.452Z,22.40
2023-06-17T23:37:02.658Z,22.38
2023-06-17T23:39:29.373Z,22.35
2023-06-17T23:41:56.164Z,22.34
2023-06-17T23:44:23.711Z,22.32
2023-06-17T23:46:50.495Z,22.33
2023-06-17T23:49:17.306Z,22.32
2023-06-17T23:51:45.060Z,22.30
2023-06-17T23:54:11.760Z,22.31
2023-06-17T23:56:38.520Z,22.30
2023-06-17T23:59:05.347Z,22.28
